Time;durP1;ratioP1;P1;durP2;ratioP2;P2;SDS_P1;SDS_P2;PMS_P1;PMS_P2;Temp;Humidity;BMP_temperature;BMP_pressure;BME280_temperature;BME280_humidity;BME280_pressure;Samples;Min_cycle;Max_cycle;Signal;HPM_P1;HPM_P2
2023/03/23 00:01:22;;;;;;;10.82;6.18;;;11.20;99.90;;;;;;6006252;23;20114;-72
2023/03/23 00:03:50;;;;;;;13.52;6.75;;;11.20;99.90;;;;;;6006572;23;20117;-72
2023/03/23 00:06:17;;;;;;;13.25;7.45;;;11.20;99.90;;;;;;6005708;23;20028;-72
2023/03/23 00:08:45;;;;;;;13.05;6.68;;;11.20;99.90;;;;;;5980806;23;20057;-72
2023/03/23 00:11:18;;;;;;;10.73;7.35;;;11.20;99.90;;;;;;6006243;23;20123;-72
2023/03/23 00:13:45;;;;;;;;;;;11.10;99.90;;;;;;5981452;23;20415;-72
2023/03/23 00:16:18;;;;;;;10.70;6.38;;;11.20;99.90;;;;;;6006451;23;19966;-71
2023/03/23 00:18:47;;;;;;;;;;;11.20;99.90;;;;;;5981398;23;20078;-72
2023/03/23 00:21:14;;;;;;;7.82;6.18;;;11.20;99.90;;;;;;6006333;23;19946;-72
2023/03/23 00:23:40;;;;;;;8.48;6.20;;;11.20;99.90;;;;;;5980008;23;20333;-72
2023/03/23 00:26:06;;;;;;;11.88;6.40;;;11.20;99.90;;;;;;6006010;23;20129;-72
2023/03/23 00:28:32;;;;;;;10.50;5.57;;;11.20;99.90;;;;;;6006631;23;20012;-72
2023/03/23 00:30:59;;;;;;;15.27;6.28;;;11.20;99.90;;;;;;6006831;23;20106;-72
2023/03/23 00:33:27;;;;;;;7.38;5.85;;;11.20;99.90;;;;;;6006024;23;20452;-73
2023/03/23 00:35:54;;;;;;;10.95;5.22;;;11.20;99.90;;;;;;6006435;23;20081;-72
2023/03/23 00:38:22;;;;;;;11.30;5.68;;;11.20;99.90;;;;;;6006191;23;20044;-72
2023/03/23 00:40:48;;;;;;;15.32;6.10;;;11.20;99.90;;;;;;6005966;23;20293;-72
2023/03/23 00:43:16;;;;;;;7.53;6.20;;;11.20;99.90;;;;;;6005925;23;20101;-72
2023/03/23 00:45:44;;;;;;;11.30;5.82;;;11.20;99.90;;;;;;6006014;23;20011;-72
2023/03/23 00:48:12;;;;;;;10.43;6.00;;;11.20;99.90;;;;;;6006539;23;20072;-72
2023/03/23 00:50:39;;;;;;;10.18;5.20;;;11.20;99.90;;;;;;6006504;23;20136;-72
2023/03/23 00:53:05;;;;;;;11.98;4.88;;;11.20;99.90;;;;;;6006492;23;20012;-72
2023/03/23 00:55:30;;;;;;;6.53;4.55;;;11.30;99.90;;;;;;6005605;23;20476;-73
2023/03/23 00:57:56;;;;;;;11.02;6.05;;;11.30;99.90;;;;;;6006222;23;20270;-72
2023/03/23 01:00:23;;;;;;;7.85;4.53;;;11.30;99.90;;;;;;6005456;23;20417;-73
2023/03/23 01:02:51;;;;;;;5.78;3.70;;;11.30;99.90;;;;;;6006020;23;20026;-73
2023/03/23 01:05:17;;;;;;;7.38;3.50;;;11.30;99.90;;;;;;6005990;23;20173;-71
2023/03/23 01:07:44;;;;;;;8.20;3.50;;;11.30;99.90;;;;;;6005645;23;20047;-72
2023/03/23 01:10:12;;;;;;;7.35;3.70;;;11.40;99.90;;;;;;6005961;23;20060;-72
2023/03/23 01:12:39;;;;;;;7.65;4.05;;;11.30;99.90;;;;;;6006202;23;20016;-71
2023/03/23 01:15:05;;;;;;;6.55;3.75;;;11.40;99.90;;;;;;6005855;23;20178;-71
2023/03/23 01:17:31;;;;;;;5.47;3.45;;;11.40;99.90;;;;;;6005691;23;20091;-72
2023/03/23 01:19:57;;;;;;;5.40;3.30;;;11.30;99.90;;;;;;6005263;23;20172;-72
2023/03/23 01:22:23;;;;;;;5.00;3.35;;;11.30;99.90;;;;;;6005438;23;20091;-72
2023/03/23 01:24:49;;;;;;;4.30;3.08;;;11.30;99.90;;;;;;6007652;23;20028;-72
2023/03/23 01:27:15;;;;;;;6.57;3.83;;;11.30;99.90;;;;;;6007593;23;20329;-72
2023/03/23 01:29:40;;;;;;;6.55;3.95;;;11.30;99.90;;;;;;6007526;23;20309;-72
2023/03/23 01:32:06;;;;;;;5.57;4.45;;;11.30;99.90;;;;;;6005464;23;20031;-72
2023/03/23 01:34:32;;;;;;;7.82;4.20;;;11.30;99.90;;;;;;6007513;23;20312;-72
2023/03/23 01:36:57;;;;;;;8.57;4.88;;;11.30;99.90;;;;;;6005169;23;20012;-73
2023/03/23 01:39:23;;;;;;;11.40;4.47;;;11.30;99.90;;;;;;6006862;23;20059;-73
2023/03/23 01:41:49;;;;;;;9.40;4.50;;;11.30;99.90;;;;;;6006929;23;20108;-73
2023/03/23 01:44:17;;;;;;;6.30;3.95;;;11.20;99.90;;;;;;6004717;23;20416;-73
2023/03/23 01:46:44;;;;;;;10.15;4.53;;;11.30;99.90;;;;;;5981709;23;20072;-72
2023/03/23 01:49:25;;;;;;;7.15;4.10;;;11.20;99.90;;;;;;6007913;23;20104;-73
2023/03/23 01:51:55;;;;;;;7.65;3.90;;;11.20;99.90;;;;;;6006665;23;20043;-73
2023/03/23 01:54:23;;;;;;;7.03;4.05;;;11.20;99.90;;;;;;6005443;23;20421;-72
2023/03/23 01:57:06;;;;;;;5.93;3.50;;;11.20;99.90;;;;;;6007648;23;20091;-73
2023/03/23 01:59:34;;;;;;;6.95;4.43;;;11.30;99.90;;;;;;6007069;23;20026;-72
2023/03/23 02:02:01;;;;;;;7.80;3.47;;;11.30;99.90;;;;;;5982070;23;20011;-72
2023/03/23 02:04:29;;;;;;;7.43;4.18;;;11.30;99.90;;;;;;6007427;23;20023;-72
2023/03/23 02:06:57;;;;;;;10.55;4.03;;;11.30;99.90;;;;;;6006192;23;20040;-73
2023/03/23 02:09:25;;;;;;;6.95;3.80;;;11.30;99.90;;;;;;6007494;23;20058;-72
2023/03/23 02:11:52;;;;;;;9.57;3.83;;;11.30;99.90;;;;;;6007171;23;20317;-71
2023/03/23 02:14:20;;;;;;;4.75;3.25;;;11.30;99.90;;;;;;6006967;23;20027;-72
2023/03/23 02:17:01;;;;;;;5.63;3.25;;;11.30;99.90;;;;;;6007296;23;20019;-72
2023/03/23 02:19:41;;;;;;;7.70;3.55;;;11.30;99.90;;;;;;6006533;23;20404;-72
2023/03/23 02:22:22;;;;;;;6.07;3.90;;;11.30;99.90;;;;;;6006590;23;20329;-72
2023/03/23 02:24:58;;;;;;;4.55;3.28;;;11.30;99.90;;;;;;6006673;23;20012;-72
2023/03/23 02:27:55;;;;;;;9.80;4.30;;;11.30;99.90;;;;;;6005113;23;20074;-72
2023/03/23 02:30:50;;;;;;;9.13;3.90;;;11.30;99.90;;;;;;6006490;23;20118;-73
2023/03/23 02:33:29;;;;;;;8.93;3.90;;;11.20;99.90;;;;;;5954974;23;20350;-72
2023/03/23 02:36:21;;;;;;;5.70;3.20;;;11.30;99.90;;;;;;6006883;23;20123;-72
2023/03/23 02:38:51;;;;;;;6.90;3.65;;;11.20;99.90;;;;;;6006861;23;20130;-72
2023/03/23 02:41:21;;;;;;;7.10;3.70;;;11.20;99.90;;;;;;6006904;23;20015;-72
2023/03/23 02:43:49;;;;;;;7.05;4.05;;;11.20;99.90;;;;;;6006225;23;20024;-73
2023/03/23 02:46:16;;;;;;;6.47;4.10;;;11.20;99.90;;;;;;6006774;23;20090;-73
2023/03/23 02:48:45;;;;;;;11.80;4.18;;;11.20;99.90;;;;;;6006714;23;20008;-72
2023/03/23 02:51:12;;;;;;;14.02;4.38;;;11.20;99.90;;;;;;6004515;23;20015;-73
2023/03/23 02:53:42;;;;;;;6.55;3.67;;;11.20;99.90;;;;;;6004709;23;20047;-73
2023/03/23 02:56:10;;;;;;;7.78;3.90;;;11.20;99.90;;;;;;6004460;23;20035;-73
2023/03/23 02:58:36;;;;;;;6.40;3.67;;;11.20;99.90;;;;;;6006021;23;20028;-73
2023/03/23 03:01:32;;;;;;;4.88;3.65;;;11.20;99.90;;;;;;6006191;23;20062;-73
2023/03/23 03:04:01;;;;;;;7.05;4.38;;;11.20;99.90;;;;;;5993602;23;20015;-72
2023/03/23 03:06:33;;;;;;;9.75;3.25;;;11.20;99.90;;;;;;6006066;23;20023;-72
2023/03/23 03:09:04;;;;;;;7.53;4.30;;;11.20;99.90;;;;;;6006342;23;20046;-72
2023/03/23 03:11:32;;;;;;;7.22;3.90;;;11.20;99.90;;;;;;6006340;23;20026;-72
2023/03/23 03:14:06;;;;;;;8.38;3.80;;;11.20;99.90;;;;;;6006125;23;20091;-72
2023/03/23 03:17:02;;;;;;;6.20;3.58;;;11.20;99.90;;;;;;6006182;23;20020;-73
2023/03/23 03:19:49;;;;;;;10.13;3.88;;;11.20;99.90;;;;;;6006162;23;20023;-73
2023/03/23 03:22:17;;;;;;;5.43;3.28;;;11.20;99.90;;;;;;6006125;23;20311;-71
2023/03/23 03:24:43;;;;;;;5.55;3.58;;;11.20;99.90;;;;;;6006396;23;20104;-72
2023/03/23 03:27:16;;;;;;;5.75;3.72;;;11.20;99.90;;;;;;6004237;23;20011;-72
2023/03/23 03:29:45;;;;;;;5.05;3.80;;;11.20;99.90;;;;;;6005901;23;20023;-73
2023/03/23 03:32:19;;;;;;;5.32;3.40;;;11.20;99.90;;;;;;6006402;23;20020;-73
2023/03/23 03:34:45;;;;;;;7.68;3.17;;;11.30;99.90;;;;;;5980549;23;20719;-73
2023/03/23 03:37:11;;;;;;;7.55;3.47;;;11.30;99.90;;;;;;6004392;23;20023;-73
2023/03/23 03:39:38;;;;;;;5.20;3.55;;;11.30;99.90;;;;;;6006188;23;20122;-72
2023/03/23 03:42:06;;;;;;;6.05;3.83;;;11.30;99.90;;;;;;6006016;23;20086;-72
2023/03/23 03:44:33;;;;;;;7.63;3.75;;;11.30;99.90;;;;;;6006069;23;20015;-72
2023/03/23 03:46:59;;;;;;;4.25;3.50;;;11.40;99.90;;;;;;5980766;23;20281;-72
2023/03/23 03:49:26;;;;;;;5.38;3.80;;;11.40;99.90;;;;;;6003891;23;20096;-72
2023/03/23 03:51:52;;;;;;;5.55;3.33;;;11.40;99.90;;;;;;6006446;23;20007;-71
2023/03/23 03:54:17;;;;;;;7.47;4.10;;;11.40;99.90;;;;;;6006409;23;20054;-72
2023/03/23 03:56:45;;;;;;;8.05;3.83;;;11.40;99.90;;;;;;6005789;23;20019;-71
2023/03/23 03:59:12;;;;;;;7.13;4.20;;;11.40;99.90;;;;;;6005923;23;20082;-72
2023/03/23 04:01:38;;;;;;;4.60;3.55;;;11.40;99.90;;;;;;6005877;23;20102;-72
2023/03/23 04:04:06;;;;;;;4.07;3.40;;;11.50;99.90;;;;;;5980137;23;20098;-73
2023/03/23 04:06:35;;;;;;;6.72;3.95;;;11.40;99.90;;;;;;6004057;23;20397;-72
2023/03/23 04:09:06;;;;;;;8.48;4.47;;;11.40;99.90;;;;;;5980560;23;20095;-72
2023/03/23 04:11:32;;;;;;;5.93;4.43;;;11.40;99.90;;;;;;6005947;23;20109;-72
2023/03/23 04:13:58;;;;;;;5.53;4.07;;;11.50;99.90;;;;;;6005899;23;20292;-72
2023/03/23 04:16:23;;;;;;;6.57;3.67;;;11.50;99.90;;;;;;6003656;23;20015;-72
2023/03/23 04:18:49;;;;;;;6.30;3.90;;;11.40;99.90;;;;;;6005543;23;20039;-72
2023/03/23 04:21:16;;;;;;;5.95;3.53;;;11.50;99.90;;;;;;6005741;23;20132;-71
2023/03/23 04:23:42;;;;;;;6.03;4.43;;;11.50;99.90;;;;;;6005553;23;20028;-72
2023/03/23 04:26:07;;;;;;;9.13;3.90;;;11.40;99.90;;;;;;6003977;23;20024;-71
2023/03/23 04:28:33;;;;;;;7.75;4.10;;;11.40;99.90;;;;;;6005928;23;20163;-73
2023/03/23 04:31:00;;;;;;;5.65;3.97;;;11.40;99.90;;;;;;6005778;23;20474;-72
2023/03/23 04:33:29;;;;;;;6.35;3.70;;;11.50;99.90;;;;;;6005757;23;20448;-73
2023/03/23 04:36:00;;;;;;;5.65;4.07;;;11.50;99.90;;;;;;6006043;23;20084;-73
2023/03/23 04:38:29;;;;;;;6.68;3.63;;;11.50;99.90;;;;;;5981690;23;20308;-73
2023/03/23 04:40:55;;;;;;;9.25;3.67;;;11.60;99.90;;;;;;5980622;23;20364;-73
2023/03/23 04:43:24;;;;;;;10.65;3.97;;;11.60;99.90;;;;;;6005779;23;20166;-72
2023/03/23 04:45:55;;;;;;;9.20;3.95;;;11.50;99.90;;;;;;6005390;23;20024;-73
2023/03/23 04:48:23;;;;;;;6.63;3.90;;;11.60;99.90;;;;;;5980557;23;20020;-72
2023/03/23 04:50:50;;;;;;;8.48;4.30;;;11.60;99.90;;;;;;6003670;23;20099;-72
2023/03/23 04:53:17;;;;;;;9.65;4.45;;;11.60;99.90;;;;;;6005766;23;20102;-72
2023/03/23 04:55:44;;;;;;;7.82;3.72;;;11.60;99.90;;;;;;6005432;23;20353;-73
2023/03/23 04:58:12;;;;;;;9.65;4.15;;;11.60;99.90;;;;;;6006642;23;20015;-71
2023/03/23 05:00:38;;;;;;;7.00;4.22;;;11.60;99.90;;;;;;6006966;23;20051;-72
2023/03/23 05:03:04;;;;;;;8.10;4.00;;;11.60;99.90;;;;;;6007131;23;20015;-71
2023/03/23 05:05:30;;;;;;;7.55;3.75;;;11.60;99.90;;;;;;6007401;23;20080;-71
2023/03/23 05:07:56;;;;;;;7.60;3.58;;;11.60;99.90;;;;;;6007178;23;20027;-72
2023/03/23 05:10:22;;;;;;;7.07;3.92;;;11.60;99.90;;;;;;6005700;23;20016;-72
2023/03/23 05:12:48;;;;;;;7.97;3.40;;;11.60;99.90;;;;;;6007552;23;20366;-73
2023/03/23 05:15:16;;;;;;;10.10;5.15;;;11.60;99.90;;;;;;6007391;23;20020;-72
2023/03/23 05:17:45;;;;;;;9.65;4.00;;;11.60;99.90;;;;;;6007307;23;20024;-71
2023/03/23 05:20:18;;;;;;;6.20;3.30;;;11.60;99.90;;;;;;6007433;23;20051;-72
2023/03/23 05:22:44;;;;;;;10.93;4.10;;;11.60;99.90;;;;;;6007125;23;20042;-72
2023/03/23 05:25:10;;;;;;;4.65;3.30;;;11.50;99.90;;;;;;6006995;23;20019;-72
2023/03/23 05:27:37;;;;;;;8.27;3.80;;;11.50;99.90;;;;;;6007259;23;20016;-72
2023/03/23 05:30:04;;;;;;;8.10;3.20;;;11.50;99.90;;;;;;6008211;23;20103;-74
2023/03/23 05:32:30;;;;;;;7.10;2.35;;;11.40;99.90;;;;;;6007638;23;20030;-76
2023/03/23 05:35:00;;;;;;;5.40;2.25;;;11.30;99.90;;;;;;6007641;23;20015;-72
2023/03/23 05:37:33;;;;;;;8.07;4.20;;;11.30;99.90;;;;;;6007719;23;20031;-72
2023/03/23 05:40:04;;;;;;;6.05;3.83;;;11.20;99.90;;;;;;6007941;23;20095;-74
2023/03/23 05:42:31;;;;;;;5.32;3.17;;;11.20;99.90;;;;;;6008321;23;20104;-78
2023/03/23 05:44:58;;;;;;;6.75;3.70;;;11.20;99.90;;;;;;5984111;23;20032;-81
2023/03/23 05:47:25;;;;;;;8.15;3.70;;;11.20;99.90;;;;;;6008603;23;20016;-77
2023/03/23 05:49:51;;;;;;;7.97;3.53;;;11.10;99.90;;;;;;6007720;23;20392;-74
2023/03/23 05:52:17;;;;;;;5.95;3.15;;;11.20;99.90;;;;;;6007886;23;20348;-73
2023/03/23 05:54:44;;;;;;;5.00;3.00;;;11.10;99.90;;;;;;6007993;23;20047;-73
2023/03/23 05:57:10;;;;;;;5.30;2.63;;;11.20;99.90;;;;;;6007759;23;20159;-72
2023/03/23 05:59:36;;;;;;;7.00;2.58;;;11.10;99.90;;;;;;6006912;23;20093;-72
2023/03/23 06:02:03;;;;;;;6.70;2.70;;;11.20;99.90;;;;;;6007410;23;20016;-73
2023/03/23 06:04:29;;;;;;;12.18;2.80;;;11.20;99.90;;;;;;6005992;23;20058;-72
2023/03/23 06:06:54;;;;;;;8.80;2.22;;;11.20;99.90;;;;;;6007172;23;20111;-73
2023/03/23 06:09:21;;;;;;;5.57;2.10;;;11.10;99.90;;;;;;6006813;23;20024;-73
2023/03/23 06:11:47;;;;;;;5.65;2.15;;;11.00;99.90;;;;;;6007006;23;20091;-72
2023/03/23 06:14:13;;;;;;;5.28;2.17;;;11.10;99.90;;;;;;6006715;23;20031;-73
2023/03/23 06:16:39;;;;;;;2.92;1.95;;;11.10;99.90;;;;;;6006860;23;20416;-73
2023/03/23 06:19:04;;;;;;;4.18;1.98;;;11.00;99.90;;;;;;6006604;23;20064;-72
2023/03/23 06:21:31;;;;;;;7.25;2.20;;;11.10;99.90;;;;;;6004816;23;20012;-73
2023/03/23 06:23:59;;;;;;;5.05;2.22;;;11.10;99.90;;;;;;5976700;24;20039;-73
2023/03/23 06:26:30;;;;;;;6.60;2.40;;;11.00;99.90;;;;;;5976839;24;20119;-73
2023/03/23 06:28:57;;;;;;;8.73;3.35;;;11.00;99.90;;;;;;5978802;23;20271;-72
2023/03/23 06:31:24;;;;;;;11.85;3.08;;;11.00;99.90;;;;;;5976422;24;20055;-73
2023/03/23 06:33:50;;;;;;;6.40;2.17;;;11.00;99.90;;;;;;5976403;23;20083;-72
2023/03/23 06:36:16;;;;;;;9.55;3.28;;;11.00;99.90;;;;;;5978513;23;20110;-72
2023/03/23 06:38:42;;;;;;;5.10;2.55;;;11.00;99.90;;;;;;5978457;23;20020;-72
2023/03/23 06:41:08;;;;;;;9.48;2.45;;;11.00;99.90;;;;;;5976551;24;20076;-72
2023/03/23 06:43:36;;;;;;;9.63;2.92;;;11.10;99.90;;;;;;5977752;23;20016;-72
2023/03/23 06:46:01;;;;;;;10.48;2.80;;;11.10;99.90;;;;;;5976175;24;20023;-72
2023/03/23 06:48:28;;;;;;;8.65;3.22;;;11.10;99.90;;;;;;5978113;23;20036;-71
2023/03/23 06:50:53;;;;;;;5.47;2.60;;;11.10;99.90;;;;;;5976246;24;20346;-72
2023/03/23 06:53:20;;;;;;;9.48;2.60;;;11.10;99.90;;;;;;5978414;23;20028;-71
2023/03/23 06:55:46;;;;;;;13.55;3.78;;;11.10;99.90;;;;;;5978382;23;20024;-72
2023/03/23 06:58:12;;;;;;;8.27;2.85;;;11.20;99.90;;;;;;5978451;23;20388;-72
2023/03/23 07:00:38;;;;;;;7.47;2.65;;;11.10;99.90;;;;;;5978328;24;20133;-72
2023/03/23 07:03:04;;;;;;;10.02;3.20;;;11.20;99.90;;;;;;5976647;24;20087;-72
2023/03/23 07:05:30;;;;;;;9.02;2.55;;;11.10;99.90;;;;;;5977966;24;20091;-72
2023/03/23 07:07:56;;;;;;;7.50;2.80;;;11.10;99.90;;;;;;5978161;24;20178;-72
2023/03/23 07:10:22;;;;;;;8.63;3.03;;;11.10;99.90;;;;;;5978204;23;20072;-72
2023/03/23 07:12:47;;;;;;;13.20;3.60;;;11.20;99.90;;;;;;5978416;24;20017;-73
2023/03/23 07:15:13;;;;;;;8.10;2.70;;;11.20;99.90;;;;;;5978414;24;20381;-73
2023/03/23 07:17:40;;;;;;;16.85;2.80;;;11.20;99.90;;;;;;5977847;24;20016;-73
2023/03/23 07:20:06;;;;;;;5.82;2.80;;;11.20;99.90;;;;;;5978225;23;20313;-73
2023/03/23 07:22:33;;;;;;;7.95;2.70;;;11.20;99.90;;;;;;5983485;23;20023;-74
2023/03/23 07:24:58;;;;;;;7.82;2.75;;;11.30;99.90;;;;;;6006321;23;20182;-73
2023/03/23 07:27:25;;;;;;;10.52;3.15;;;11.20;99.90;;;;;;6004483;23;20063;-73
2023/03/23 07:29:50;;;;;;;16.17;3.17;;;11.30;99.90;;;;;;6004282;23;20426;-73
2023/03/23 07:32:16;;;;;;;10.77;3.38;;;11.30;99.90;;;;;;6006862;23;20012;-73
2023/03/23 07:34:42;;;;;;;9.50;2.70;;;11.30;99.90;;;;;;5981552;23;20019;-74
2023/03/23 07:37:09;;;;;;;7.55;2.70;;;11.30;99.90;;;;;;6006351;23;20030;-74
2023/03/23 07:39:35;;;;;;;9.30;2.83;;;11.40;99.90;;;;;;5980828;23;20094;-74
2023/03/23 07:42:01;;;;;;;6.78;2.50;;;11.40;99.90;;;;;;6006909;23;20020;-73
2023/03/23 07:44:27;;;;;;;10.27;2.60;;;11.40;99.90;;;;;;6006069;23;20046;-71
2023/03/23 07:46:53;;;;;;;9.23;3.22;;;11.40;99.90;;;;;;6006611;23;20094;-72
2023/03/23 07:49:18;;;;;;;11.98;2.80;;;11.40;99.90;;;;;;6006790;23;20024;-72
2023/03/23 07:51:45;;;;;;;7.82;2.80;;;11.50;99.90;;;;;;6006744;23;20027;-73
2023/03/23 07:54:11;;;;;;;12.95;3.47;;;11.50;99.90;;;;;;6006541;23;20038;-72
2023/03/23 07:56:39;;;;;;;13.05;3.30;;;11.50;99.90;;;;;;5981323;23;20072;-73
2023/03/23 07:59:06;;;;;;;15.63;2.83;;;11.50;99.90;;;;;;6004424;23;20027;-73
2023/03/23 08:01:33;;;;;;;15.23;3.45;;;11.60;99.90;;;;;;5980901;23;20058;-73
2023/03/23 08:03:59;;;;;;;10.75;2.50;;;11.60;99.90;;;;;;6006247;23;20020;-74
2023/03/23 08:06:26;;;;;;;15.65;4.72;;;11.60;99.90;;;;;;6006313;23;20047;-72
2023/03/23 08:08:52;;;;;;;11.43;3.13;;;11.60;99.90;;;;;;6006062;23;20019;-73
2023/03/23 08:11:18;;;;;;;14.10;3.10;;;11.70;99.90;;;;;;6007046;23;20023;-72
2023/03/23 08:13:47;;;;;;;16.02;3.67;;;11.70;99.90;;;;;;6006194;23;20164;-74
2023/03/23 08:16:13;;;;;;;12.52;3.00;;;11.70;99.90;;;;;;6006838;23;20011;-73
2023/03/23 08:18:39;;;;;;;10.75;3.13;;;11.70;99.90;;;;;;6004613;23;20016;-73
2023/03/23 08:21:09;;;;;;;12.13;4.22;;;11.70;99.90;;;;;;6007019;23;20014;-74
2023/03/23 08:23:36;;;;;;;16.20;4.63;;;11.70;99.90;;;;;;6005953;23;20020;-72
2023/03/23 08:26:04;;;;;;;12.90;3.08;;;11.70;99.90;;;;;;6006361;23;20423;-72
2023/03/23 08:28:30;;;;;;;10.93;3.25;;;11.70;99.90;;;;;;5981214;23;20061;-72
2023/03/23 08:30:56;;;;;;;12.55;3.63;;;11.70;99.90;;;;;;6006735;23;20023;-72
2023/03/23 08:33:22;;;;;;;12.07;3.42;;;11.80;99.90;;;;;;5983080;23;20098;-73
2023/03/23 08:35:56;;;;;;;15.40;3.50;;;11.80;99.90;;;;;;6006683;23;20104;-73
2023/03/23 08:38:23;;;;;;;12.98;4.10;;;11.80;99.90;;;;;;5982003;23;20349;-72
2023/03/23 08:40:50;;;;;;;11.65;3.83;;;11.80;99.90;;;;;;5981894;23;20075;-73
2023/03/23 08:43:16;;;;;;;12.30;4.43;;;11.80;99.90;;;;;;6007906;23;20020;-73
2023/03/23 08:45:42;;;;;;;16.05;3.70;;;11.80;99.90;;;;;;6007789;23;20091;-73
2023/03/23 08:48:08;;;;;;;12.40;3.05;;;11.80;99.90;;;;;;6007856;23;20164;-73
2023/03/23 08:50:35;;;;;;;9.73;3.45;;;11.80;99.90;;;;;;6006155;23;20066;-73
2023/03/23 08:53:01;;;;;;;11.45;3.50;;;11.80;99.90;;;;;;5982483;23;20035;-73
2023/03/23 08:55:28;;;;;;;10.80;2.78;;;11.80;99.90;;;;;;5982837;23;20110;-73
2023/03/23 08:57:54;;;;;;;14.35;4.05;;;11.80;99.90;;;;;;5983216;23;20426;-73
2023/03/23 09:00:24;;;;;;;11.50;3.92;;;11.80;99.90;;;;;;6008192;23;20138;-73
2023/03/23 09:02:52;;;;;;;17.05;4.20;;;11.80;99.90;;;;;;6008475;23;20019;-74
2023/03/23 09:05:24;;;;;;;15.75;4.70;;;11.80;99.90;;;;;;6008335;23;20090;-73
2023/03/23 09:07:52;;;;;;;12.95;3.40;;;11.90;99.90;;;;;;6006283;23;20019;-73
2023/03/23 09:10:18;;;;;;;16.40;3.03;;;11.90;99.90;;;;;;6007934;23;20052;-73
2023/03/23 09:12:45;;;;;;;16.70;4.15;;;12.10;99.90;;;;;;6005693;23;20038;-73
2023/03/23 09:15:14;;;;;;;15.05;3.90;;;12.00;99.90;;;;;;6008273;23;20095;-74
2023/03/23 09:17:44;;;;;;;9.93;3.63;;;12.00;99.90;;;;;;6007663;23;20027;-73
2023/03/23 09:20:13;;;;;;;15.93;3.63;;;12.10;99.90;;;;;;6007816;23;20365;-73
2023/03/23 09:22:40;;;;;;;15.63;4.25;;;12.10;99.90;;;;;;6006867;23;20023;-73
2023/03/23 09:25:10;;;;;;;12.48;3.90;;;12.10;99.90;;;;;;6006908;23;20019;-72
2023/03/23 09:27:40;;;;;;;16.25;3.95;;;12.00;99.90;;;;;;5987013;23;20023;-74
2023/03/23 09:30:08;;;;;;;12.68;5.18;;;12.10;99.90;;;;;;6004955;23;20158;-71
2023/03/23 09:32:34;;;;;;;18.35;5.10;;;12.10;99.90;;;;;;6007513;23;20082;-73
2023/03/23 09:35:01;;;;;;;15.55;4.50;;;12.10;99.90;;;;;;5981503;23;20055;-73
2023/03/23 09:37:28;;;;;;;11.32;4.25;;;12.10;99.90;;;;;;6006792;23;20016;-73
2023/03/23 09:39:54;;;;;;;12.45;3.95;;;12.10;99.90;;;;;;5981488;23;20020;-73
